Time;durP1;ratioP1;P1;durP2;ratioP2;P2;SDS_P1;SDS_P2;PMS_P1;PMS_P2;Temp;Humidity;BMP_temperature;BMP_pressure;BME280_temperature;BME280_humidity;BME280_pressure;Samples;Min_cycle;Max_cycle;Signal;HPM_P1;HPM_P2
2022/12/27 00:00:51;;;;;;;10.57;2.00;;;6.80;99.90;;;;;;5007674;28;20208;-74
2022/12/27 00:03:16;;;;;;;8.87;3.00;;;6.80;99.90;;;;;;5004919;28;20236;-74
2022/12/27 00:05:43;;;;;;;8.10;1.70;;;6.60;99.90;;;;;;5010742;28;20216;-74
2022/12/27 00:08:09;;;;;;;9.03;2.20;;;6.60;99.90;;;;;;5021394;28;20213;-74
2022/12/27 00:10:35;;;;;;;10.17;1.60;;;6.50;99.90;;;;;;5003938;28;20201;-74
2022/12/27 00:13:01;;;;;;;10.27;1.83;;;6.50;99.90;;;;;;5008445;28;20217;-74
2022/12/27 00:15:27;;;;;;;6.73;1.80;;;6.40;99.90;;;;;;5006732;28;20655;-74
2022/12/27 00:17:52;;;;;;;13.80;2.50;;;6.40;99.90;;;;;;5004789;28;20619;-73
2022/12/27 00:20:18;;;;;;;16.10;2.33;;;6.30;99.90;;;;;;5008029;28;20208;-74
2022/12/27 00:22:44;;;;;;;8.57;2.17;;;6.20;99.90;;;;;;5020190;28;20259;-73
2022/12/27 00:25:09;;;;;;;9.97;2.50;;;6.20;99.90;;;;;;5021189;28;20237;-74
2022/12/27 00:27:36;;;;;;;8.73;1.57;;;6.10;99.90;;;;;;5007919;28;20776;-75
2022/12/27 00:30:01;;;;;;;14.43;2.80;;;6.10;99.90;;;;;;5005027;28;20181;-75
2022/12/27 00:32:27;;;;;;;13.50;2.80;;;6.10;99.90;;;;;;5010846;28;20209;-73
2022/12/27 00:34:53;;;;;;;13.17;2.23;;;6.10;99.90;;;;;;5004890;28;20214;-73
2022/12/27 00:37:18;;;;;;;9.00;1.80;;;6.20;99.90;;;;;;5004564;28;20216;-73
2022/12/27 00:39:44;;;;;;;7.87;1.70;;;6.20;99.90;;;;;;5005169;28;20216;-74
2022/12/27 00:42:09;;;;;;;7.57;1.53;;;6.20;99.90;;;;;;5019926;28;20185;-73
2022/12/27 00:44:35;;;;;;;12.93;2.00;;;6.10;99.90;;;;;;5010527;28;20567;-74
2022/12/27 00:47:01;;;;;;;9.50;1.80;;;6.10;99.90;;;;;;5008344;28;20221;-74
2022/12/27 00:49:26;;;;;;;11.90;1.70;;;6.00;99.90;;;;;;5004909;28;20696;-74
2022/12/27 00:51:52;;;;;;;10.10;1.70;;;6.00;99.90;;;;;;5003447;28;20213;-72
2022/12/27 00:54:18;;;;;;;13.30;1.70;;;6.00;99.90;;;;;;5022883;28;20199;-74
2022/12/27 00:56:43;;;;;;;10.20;2.07;;;6.00;99.90;;;;;;5003341;28;20183;-72
2022/12/27 00:59:10;;;;;;;11.00;1.63;;;5.90;99.90;;;;;;5008018;28;20288;-73
2022/12/27 01:01:36;;;;;;;5.80;1.50;;;5.90;99.90;;;;;;5006873;28;20648;-74
2022/12/27 01:04:02;;;;;;;9.10;1.30;;;5.90;99.90;;;;;;5015400;28;20226;-74
2022/12/27 01:06:30;;;;;;;6.10;1.83;;;5.80;99.90;;;;;;5009250;28;20232;-74
2022/12/27 01:08:57;;;;;;;8.00;1.90;;;5.90;99.90;;;;;;5004363;28;20177;-73
2022/12/27 01:11:25;;;;;;;4.90;1.53;;;5.90;99.90;;;;;;5001896;28;20251;-73
2022/12/27 01:13:52;;;;;;;6.23;1.73;;;5.70;99.90;;;;;;5006804;28;20301;-74
2022/12/27 01:16:21;;;;;;;7.67;2.10;;;5.70;99.90;;;;;;5055028;22;20287;-71
2022/12/27 01:18:48;;;;;;;11.30;1.93;;;5.60;99.90;;;;;;5067148;28;20236;-71
2022/12/27 01:21:16;;;;;;;7.07;2.00;;;5.60;99.90;;;;;;5062173;28;20180;-72
2022/12/27 01:23:42;;;;;;;10.43;1.83;;;5.50;99.90;;;;;;5051252;28;20185;-71
2022/12/27 01:26:17;;;;;;;6.40;1.87;;;5.40;99.90;;;;;;5048962;28;20677;-71
2022/12/27 01:28:44;;;;;;;7.50;1.63;;;5.40;99.90;;;;;;5057417;28;20213;-71
2022/12/27 01:31:16;;;;;;;4.27;1.60;;;5.40;99.90;;;;;;5072203;28;20212;-71
2022/12/27 01:33:42;;;;;;;5.33;1.77;;;5.40;99.90;;;;;;5065232;28;20314;-71
2022/12/27 01:36:12;;;;;;;6.97;1.33;;;5.30;99.90;;;;;;5044141;28;20211;-69
2022/12/27 01:38:38;;;;;;;7.10;1.77;;;5.30;99.90;;;;;;5069712;28;20229;-71
2022/12/27 01:42:50;;;;;;;4.30;1.80;;;5.30;99.90;;;;;;5068312;28;20211;-71
2022/12/27 01:43:49;;;;;;;6.37;1.43;;;5.30;99.90;;;;;;5069184;28;20221;-72
2022/12/27 01:46:16;;;;;;;8.07;1.87;;;5.30;99.90;;;;;;5068635;28;20214;-72
2022/12/27 01:48:42;;;;;;;10.43;2.33;;;5.20;99.90;;;;;;5070471;28;20230;-72
2022/12/27 01:51:09;;;;;;;5.40;1.30;;;5.20;99.90;;;;;;5069636;28;20210;-72
2022/12/27 01:53:43;;;;;;;6.73;1.37;;;5.20;99.90;;;;;;5070050;28;20218;-72
2022/12/27 01:56:13;;;;;;;10.13;2.40;;;5.20;99.90;;;;;;5068757;28;20264;-72
2022/12/27 01:59:03;;;;;;;9.33;2.03;;;5.10;99.90;;;;;;5070181;28;20298;-72
2022/12/27 02:01:43;;;;;;;8.37;1.93;;;5.20;99.90;;;;;;5068940;28;20302;-72
2022/12/27 02:04:17;;;;;;;12.07;2.17;;;5.20;99.90;;;;;;5068736;28;20213;-72
2022/12/27 02:06:44;;;;;;;9.00;2.43;;;5.20;99.90;;;;;;5069912;28;20221;-72
2022/12/27 02:09:29;;;;;;;13.17;2.53;;;5.20;99.90;;;;;;5069622;28;20183;-69
2022/12/27 02:11:56;;;;;;;5.97;1.80;;;5.20;99.90;;;;;;5067513;28;20193;-72
2022/12/27 02:14:33;;;;;;;12.73;2.33;;;5.20;99.90;;;;;;5070212;28;20303;-73
2022/12/27 02:17:09;;;;;;;7.73;1.60;;;5.00;99.90;;;;;;5069604;28;20222;-72
2022/12/27 02:19:40;;;;;;;11.77;2.00;;;5.00;99.90;;;;;;5067898;28;20847;-72
2022/12/27 02:22:27;;;;;;;5.83;1.93;;;5.00;99.90;;;;;;5069553;28;20225;-70
2022/12/27 02:24:53;;;;;;;6.97;2.10;;;5.00;99.90;;;;;;5068439;28;20217;-73
2022/12/27 02:27:41;;;;;;;10.73;1.53;;;5.00;99.90;;;;;;5069596;28;20202;-72
2022/12/27 02:30:08;;;;;;;7.23;2.13;;;5.00;99.90;;;;;;5066331;28;20178;-71
2022/12/27 02:32:49;;;;;;;7.87;1.93;;;4.90;99.90;;;;;;5070078;28;20210;-73
2022/12/27 02:35:28;;;;;;;11.80;2.70;;;4.90;99.90;;;;;;5048262;28;20272;-72
2022/12/27 02:38:00;;;;;;;5.40;1.47;;;4.90;99.90;;;;;;5063003;28;20273;-72
2022/12/27 02:55:18;;;;;;;12.10;2.03;;;5.00;99.90;;;;;;5069552;28;20301;-73
2022/12/27 02:58:02;;;;;;;10.80;1.90;;;5.00;99.90;;;;;;5062050;28;20301;-73
2022/12/27 03:03:23;;;;;;;9.50;3.13;;;4.80;99.90;;;;;;5067298;28;20188;-71
2022/12/27 03:15:53;;;;;;;11.37;1.70;;;4.80;99.90;;;;;;5071482;28;20251;-73
2022/12/27 03:18:13;;;;;;;9.33;2.57;;;4.70;99.90;;;;;;5071910;28;20705;-71
2022/12/27 03:26:14;;;;;;;7.67;1.43;;;4.80;99.90;;;;;;5071498;28;20231;-72
2022/12/27 03:34:31;;;;;;;5.47;1.30;;;4.70;99.90;;;;;;5072707;28;20218;-72
2022/12/27 03:40:17;;;;;;;7.77;1.90;;;4.70;99.90;;;;;;5071325;28;20223;-72
2022/12/27 03:43:10;;;;;;;5.97;2.03;;;4.60;99.90;;;;;;5076582;28;20262;-72
2022/12/27 03:48:57;;;;;;;7.40;1.90;;;4.60;99.90;;;;;;5067543;28;20711;-72
2022/12/27 03:51:26;;;;;;;6.37;1.83;;;4.60;99.90;;;;;;5046841;28;20182;-73
2022/12/27 03:53:58;;;;;;;4.40;1.80;;;4.60;99.90;;;;;;5071424;28;20597;-73
2022/12/27 03:56:24;;;;;;;10.07;1.77;;;4.60;99.90;;;;;;5052018;28;20280;-73
2022/12/27 03:58:51;;;;;;;5.60;1.33;;;4.60;99.90;;;;;;5063368;28;20205;-70
2022/12/27 04:01:16;;;;;;;6.80;1.60;;;4.60;99.90;;;;;;5071101;28;20711;-73
2022/12/27 04:03:42;;;;;;;5.17;1.20;;;4.50;99.90;;;;;;5070827;28;20271;-72
2022/12/27 04:06:08;;;;;;;3.77;1.70;;;4.50;99.90;;;;;;5070692;28;20213;-72
2022/12/27 04:35:56;;;;;;;6.67;1.50;;;4.50;99.90;;;;;;5049473;28;20698;-71
2022/12/27 04:38:22;;;;;;;3.43;2.00;;;4.50;99.90;;;;;;5051307;28;20205;-71
2022/12/27 04:54:57;;;;;;;10.47;2.73;;;4.60;99.90;;;;;;5049620;28;20220;-71
2022/12/27 04:57:24;;;;;;;4.70;1.97;;;4.60;99.90;;;;;;5050984;28;20246;-71
2022/12/27 05:02:34;;;;;;;8.85;3.10;;;4.60;99.90;;;;;;5049781;28;20561;-71
2022/12/27 05:05:00;;;;;;;6.97;2.50;;;4.70;99.90;;;;;;5050518;28;20299;-71
2022/12/27 05:15:39;;;;;;;8.83;2.43;;;4.60;99.90;;;;;;5050531;28;20248;-71
2022/12/27 05:18:04;;;;;;;5.33;1.67;;;4.60;99.90;;;;;;5050848;28;20181;-70
2022/12/27 05:20:33;;;;;;;9.53;2.50;;;4.60;99.90;;;;;;5049869;28;20579;-71
2022/12/27 05:25:45;;;;;;;6.60;2.00;;;4.60;99.90;;;;;;5049919;28;20597;-71
2022/12/27 05:28:12;;;;;;;5.87;2.13;;;4.60;99.90;;;;;;5050326;28;20581;-72
2022/12/27 05:30:41;;;;;;;7.10;2.43;;;4.60;99.90;;;;;;5049967;28;20213;-72
2022/12/27 05:33:07;;;;;;;5.30;2.10;;;4.60;99.90;;;;;;5050728;28;20241;-72
2022/12/27 05:35:33;;;;;;;5.40;1.70;;;4.70;99.90;;;;;;5050443;28;20210;-72
2022/12/27 05:37:59;;;;;;;5.90;1.50;;;4.70;99.90;;;;;;5050038;28;20241;-72
2022/12/27 05:40:25;;;;;;;7.20;2.00;;;4.80;99.90;;;;;;5049494;28;20287;-72
2022/12/27 05:42:51;;;;;;;6.00;1.87;;;4.80;99.90;;;;;;5049767;28;20202;-73
2022/12/27 05:45:16;;;;;;;9.83;1.73;;;4.80;99.90;;;;;;5049944;28;20207;-71
2022/12/27 05:47:42;;;;;;;4.27;1.50;;;4.80;99.90;;;;;;5049260;28;20199;-72
2022/12/27 05:50:09;;;;;;;6.43;1.77;;;4.80;99.90;;;;;;5049226;28;20214;-71
2022/12/27 05:52:34;;;;;;;10.30;1.80;;;4.80;99.90;;;;;;5044081;28;20210;-72
2022/12/27 05:55:00;;;;;;;9.53;1.90;;;4.70;99.90;;;;;;5049856;28;20217;-72
2022/12/27 05:57:26;;;;;;;7.27;1.97;;;4.80;99.90;;;;;;5049935;28;20174;-72
2022/12/27 05:59:51;;;;;;;8.93;2.43;;;4.70;99.90;;;;;;5048624;28;20206;-73
2022/12/27 06:02:17;;;;;;;5.00;1.80;;;4.70;99.90;;;;;;5049867;28;20205;-72
2022/12/27 06:04:43;;;;;;;6.67;1.70;;;4.70;99.90;;;;;;5050037;28;20210;-72
2022/12/27 06:07:12;;;;;;;3.67;1.83;;;4.70;99.90;;;;;;5048553;28;20234;-72
2022/12/27 06:09:38;;;;;;;5.97;2.57;;;4.70;99.90;;;;;;5049148;28;20222;-72
2022/12/27 06:12:04;;;;;;;6.47;1.50;;;4.70;99.90;;;;;;5050520;28;20214;-72
2022/12/27 06:14:30;;;;;;;8.43;1.53;;;4.70;99.90;;;;;;5048608;28;20634;-72
2022/12/27 06:16:55;;;;;;;5.60;1.77;;;4.70;99.90;;;;;;5049777;28;20221;-72
2022/12/27 06:19:21;;;;;;;4.93;1.80;;;4.70;99.90;;;;;;5049164;28;20206;-72
2022/12/27 06:21:47;;;;;;;4.73;1.53;;;4.70;99.90;;;;;;5049202;28;20315;-72
2022/12/27 06:24:14;;;;;;;5.93;1.73;;;4.70;99.90;;;;;;5048899;28;20197;-72
2022/12/27 06:26:41;;;;;;;5.40;1.40;;;4.60;99.90;;;;;;5050465;28;20576;-72
2022/12/27 06:29:08;;;;;;;7.97;1.80;;;4.60;99.90;;;;;;5049755;28;20207;-70
2022/12/27 06:31:34;;;;;;;5.30;1.50;;;4.60;99.90;;;;;;5049505;28;20229;-72
2022/12/27 06:33:59;;;;;;;5.57;1.63;;;4.50;99.90;;;;;;5047391;28;20229;-72
2022/12/27 06:36:26;;;;;;;6.60;2.57;;;4.60;99.90;;;;;;5048493;28;20864;-72
2022/12/27 06:38:52;;;;;;;11.30;1.70;;;4.50;99.90;;;;;;5050610;28;20194;-72
2022/12/27 06:41:18;;;;;;;8.20;2.27;;;4.50;99.90;;;;;;5050995;28;20311;-71
2022/12/27 06:43:45;;;;;;;6.73;1.80;;;4.50;99.90;;;;;;5053868;28;20206;-71
2022/12/27 06:46:14;;;;;;;4.93;1.83;;;4.50;99.90;;;;;;5053761;28;20241;-72
2022/12/27 06:48:40;;;;;;;10.33;2.13;;;4.50;99.90;;;;;;5053818;28;20211;-71
2022/12/27 06:51:08;;;;;;;8.03;1.53;;;4.50;99.90;;;;;;5052213;28;20185;-69
2022/12/27 06:53:35;;;;;;;5.93;1.30;;;4.60;99.90;;;;;;5065863;28;20220;-71
2022/12/27 06:56:13;;;;;;;10.03;2.03;;;4.60;99.90;;;;;;5073496;28;20210;-72
2022/12/27 06:58:38;;;;;;;7.20;1.80;;;4.60;99.90;;;;;;5073337;28;20205;-71
2022/12/27 07:01:15;;;;;;;8.53;1.50;;;4.60;99.90;;;;;;5072532;28;20199;-72
2022/12/27 07:03:41;;;;;;;2.33;1.37;;;4.60;99.90;;;;;;5073043;28;20215;-72
2022/12/27 07:06:10;;;;;;;5.50;1.70;;;4.60;99.90;;;;;;5082868;28;20220;-72
2022/12/27 07:08:36;;;;;;;7.90;2.33;;;4.50;99.90;;;;;;5073270;28;20234;-72
2022/12/27 07:11:05;;;;;;;7.30;1.70;;;4.50;99.90;;;;;;5071009;28;20631;-73
2022/12/27 07:13:35;;;;;;;4.07;1.57;;;4.50;99.90;;;;;;5073205;28;20582;-72
2022/12/27 07:16:04;;;;;;;7.40;2.80;;;4.50;99.90;;;;;;5091903;22;21718;-72
2022/12/27 07:18:30;;;;;;;8.77;1.73;;;4.50;99.90;;;;;;5066938;28;20600;-72
2022/12/27 07:20:56;;;;;;;6.47;1.73;;;4.60;99.90;;;;;;5069561;28;20168;-72
2022/12/27 07:23:21;;;;;;;6.43;2.63;;;4.60;99.90;;;;;;5088656;28;20206;-73
2022/12/27 07:25:47;;;;;;;6.87;2.33;;;4.60;99.90;;;;;;5068010;28;20760;-73
2022/12/27 07:28:13;;;;;;;9.67;1.90;;;4.60;99.90;;;;;;5063780;28;20233;-73
2022/12/27 07:30:40;;;;;;;7.37;1.60;;;4.60;99.90;;;;;;5057862;28;20211;-72
2022/12/27 07:33:06;;;;;;;9.50;1.80;;;4.60;99.90;;;;;;5064599;28;20176;-72
2022/12/27 07:35:32;;;;;;;6.43;2.13;;;4.60;99.90;;;;;;5063541;28;20213;-72
2022/12/27 07:37:58;;;;;;;3.87;1.87;;;4.60;99.90;;;;;;5061609;28;20213;-72
2022/12/27 07:40:24;;;;;;;3.93;1.60;;;4.60;99.90;;;;;;5064288;28;20206;-73
2022/12/27 07:42:49;;;;;;;5.97;1.70;;;4.60;99.90;;;;;;5060914;28;20680;-72
2022/12/27 07:45:15;;;;;;;3.90;1.97;;;4.60;99.90;;;;;;5063388;28;20177;-70
2022/12/27 07:47:40;;;;;;;6.53;1.33;;;4.70;99.90;;;;;;5068906;28;20688;-74
2022/12/27 07:50:06;;;;;;;6.13;1.80;;;4.70;99.90;;;;;;5060506;28;20214;-71
2022/12/27 07:52:32;;;;;;;7.17;1.80;;;4.70;99.90;;;;;;5064810;28;20209;-74
2022/12/27 07:54:57;;;;;;;5.80;1.70;;;4.80;99.90;;;;;;5060628;28;20202;-74
2022/12/27 07:57:23;;;;;;;9.53;1.77;;;4.80;99.90;;;;;;5061169;28;20194;-72
2022/12/27 07:59:49;;;;;;;5.23;1.43;;;4.80;99.90;;;;;;5062097;28;20471;-72
2022/12/27 08:02:15;;;;;;;4.60;1.57;;;4.80;99.90;;;;;;5062939;28;20214;-72
2022/12/27 08:04:41;;;;;;;10.80;2.33;;;4.90;99.90;;;;;;5064447;28;20220;-72
2022/12/27 08:07:18;;;;;;;4.50;1.70;;;4.90;99.90;;;;;;5061762;28;20226;-70
2022/12/27 08:09:45;;;;;;;7.63;1.87;;;4.80;99.90;;;;;;5060482;28;20209;-72
2022/12/27 08:12:14;;;;;;;11.60;2.50;;;4.90;99.90;;;;;;5060352;28;20183;-72
2022/12/27 08:14:40;;;;;;;7.00;2.30;;;4.90;99.90;;;;;;5066900;28;20220;-72
2022/12/27 08:17:19;;;;;;;7.77;2.13;;;4.90;99.90;;;;;;5059893;28;20218;-70
2022/12/27 08:19:45;;;;;;;8.60;3.40;;;4.90;99.90;;;;;;5060320;28;20213;-71
2022/12/27 08:22:12;;;;;;;5.20;1.80;;;4.90;99.90;;;;;;5061025;28;20206;-72
2022/12/27 08:24:39;;;;;;;7.37;1.87;;;4.90;99.90;;;;;;5061704;28;20711;-72
2022/12/27 08:27:05;;;;;;;6.27;2.00;;;5.00;99.90;;;;;;5062732;28;20203;-70
2022/12/27 08:29:31;;;;;;;5.87;2.00;;;4.90;99.90;;;;;;5061792;28;20864;-72
2022/12/27 08:31:57;;;;;;;6.47;2.23;;;5.00;99.90;;;;;;5059817;28;20222;-71
2022/12/27 08:34:22;;;;;;;9.67;1.90;;;5.00;99.90;;;;;;5064170;28;20224;-73
2022/12/27 08:36:52;;;;;;;5.37;2.27;;;5.00;99.90;;;;;;5060576;28;20293;-73
2022/12/27 08:39:18;;;;;;;5.53;1.90;;;5.00;99.90;;;;;;5071177;28;20181;-73
2022/12/27 08:41:44;;;;;;;7.20;1.97;;;5.10;99.90;;;;;;5060843;28;20265;-73
2022/12/27 08:44:10;;;;;;;9.30;2.53;;;5.10;99.90;;;;;;5065582;28;20215;-72
2022/12/27 08:46:35;;;;;;;12.57;2.93;;;5.10;99.90;;;;;;5063287;28;20248;-71
2022/12/27 08:49:01;;;;;;;8.70;2.40;;;5.10;99.90;;;;;;5077644;28;20624;-73
2022/12/27 08:51:27;;;;;;;6.37;1.90;;;5.20;99.90;;;;;;5063267;28;20177;-73
2022/12/27 08:53:53;;;;;;;4.67;1.60;;;5.20;99.90;;;;;;5062686;28;20177;-72
2022/12/27 08:56:19;;;;;;;5.77;1.77;;;5.20;99.90;;;;;;5062492;28;20293;-73
2022/12/27 08:58:47;;;;;;;4.77;1.70;;;5.20;99.90;;;;;;5059503;28;20210;-73
2022/12/27 09:01:12;;;;;;;9.60;1.83;;;5.20;99.90;;;;;;5079837;28;20210;-72
2022/12/27 09:03:38;;;;;;;10.43;2.20;;;5.20;99.90;;;;;;5059433;28;20294;-73
2022/12/27 09:06:10;;;;;;;5.67;2.23;;;5.20;99.90;;;;;;5061697;28;20693;-73
2022/12/27 09:08:37;;;;;;;9.60;2.77;;;5.20;99.90;;;;;;5061206;28;20211;-73
2022/12/27 09:11:15;;;;;;;4.00;1.30;;;5.30;99.90;;;;;;5061439;28;20207;-72
2022/12/27 09:13:41;;;;;;;9.10;1.83;;;5.20;99.90;;;;;;5062027;28;20231;-73
2022/12/27 09:16:09;;;;;;;5.07;1.50;;;5.20;99.90;;;;;;5059083;28;20632;-73
2022/12/27 09:18:38;;;;;;;6.77;2.40;;;5.20;99.90;;;;;;5062632;28;20724;-74
2022/12/27 09:21:09;;;;;;;6.10;2.00;;;5.20;99.90;;;;;;5060614;28;21223;-72
2022/12/27 09:23:36;;;;;;;8.20;2.10;;;5.20;99.90;;;;;;5061238;28;20259;-71
2022/12/27 09:26:07;;;;;;;7.30;2.93;;;5.20;99.90;;;;;;5079977;28;20217;-72
2022/12/27 09:28:33;;;;;;;6.97;1.97;;;5.30;99.90;;;;;;5062458;28;20198;-72
2022/12/27 09:30:59;;;;;;;7.57;2.00;;;5.40;99.90;;;;;;5077219;28;20723;-69
2022/12/27 09:33:26;;;;;;;6.83;2.23;;;5.40;99.90;;;;;;5060737;28;20582;-70
2022/12/27 09:35:52;;;;;;;5.10;2.40;;;5.50;99.90;;;;;;5058154;28;20198;-73
2022/12/27 09:38:18;;;;;;;5.93;2.10;;;5.50;99.90;;;;;;5058761;28;20672;-72
2022/12/27 09:40:52;;;;;;;10.20;2.47;;;5.50;99.90;;;;;;5060624;28;20199;-72
2022/12/27 09:43:20;;;;;;;3.33;1.90;;;5.50;99.90;;;;;;5060940;28;20288;-73
2022/12/27 09:45:49;;;;;;;5.83;2.00;;;5.50;99.90;;;;;;5061702;28;20637;-72
2022/12/27 09:48:21;;;;;;;9.60;2.40;;;5.60;99.90;;;;;;5059605;28;20774;-72
2022/12/27 09:50:52;;;;;;;7.77;2.20;;;5.60;99.90;;;;;;5065437;28;20182;-72
2022/12/27 09:53:30;;;;;;;3.63;2.03;;;5.70;99.90;;;;;;5058868;28;20219;-72
2022/12/27 09:55:59;;;;;;;4.20;1.60;;;5.80;99.90;;;;;;5062920;28;20199;-72
2022/12/27 09:58:44;;;;;;;6.67;2.20;;;6.00;99.90;;;;;;5062189;28;20305;-72
2022/12/27 10:01:39;;;;;;;6.00;2.17;;;6.20;99.90;;;;;;5057889;28;20207;-72
2022/12/27 10:04:10;;;;;;;5.03;2.20;;;6.30;99.90;;;;;;5073191;28;20200;-71
2022/12/27 10:06:41;;;;;;;9.33;1.90;;;6.30;99.90;;;;;;5062243;28;20218;-72
2022/12/27 10:09:26;;;;;;;6.60;2.13;;;6.30;99.90;;;;;;5061651;28;20643;-72
2022/12/27 10:12:08;;;;;;;8.33;3.00;;;6.30;99.90;;;;;;5071047;28;20206;-72
2022/12/27 10:14:59;;;;;;;9.53;2.33;;;6.40;99.90;;;;;;5052767;28;20273;-72
2022/12/27 10:18:05;;;;;;;8.27;3.07;;;6.50;99.90;;;;;;5057377;28;20660;-74
2022/12/27 10:21:08;;;;;;;5.47;2.17;;;6.60;99.90;;;;;;5057106;28;20683;-72
2022/12/27 10:23:37;;;;;;;6.63;2.80;;;6.60;99.90;;;;;;5058013;28;20205;-72
2022/12/27 10:26:19;;;;;;;4.50;1.60;;;6.50;99.90;;;;;;5061936;28;20211;-72
2022/12/27 10:28:48;;;;;;;4.50;1.90;;;6.40;99.90;;;;;;5061359;28;20223;-70
2022/12/27 10:31:17;;;;;;;5.97;2.47;;;6.50;99.90;;;;;;5056481;28;20206;-72
2022/12/27 10:33:44;;;;;;;9.07;2.10;;;6.50;99.90;;;;;;5064313;28;20297;-72
2022/12/27 10:36:19;;;;;;;5.20;1.83;;;6.50;99.90;;;;;;5058903;28;20294;-73
2022/12/27 10:38:45;;;;;;;7.53;2.30;;;6.60;99.90;;;;;;5058875;28;20653;-72
2022/12/27 10:41:42;;;;;;;5.37;2.50;;;6.50;99.90;;;;;;5059582;28;20203;-71
2022/12/27 10:44:10;;;;;;;6.53;2.57;;;6.50;99.90;;;;;;5059381;28;20686;-72
2022/12/27 10:46:36;;;;;;;8.73;3.67;;;6.40;99.90;;;;;;5058513;28;20221;-73
2022/12/27 10:49:25;;;;;;;6.40;2.57;;;6.30;99.90;;;;;;5060832;28;20294;-72
2022/12/27 10:51:54;;;;;;;7.10;2.50;;;6.30;99.90;;;;;;5058554;28;20238;-71
2022/12/27 10:54:25;;;;;;;6.97;2.50;;;6.30;99.90;;;;;;5056446;28;20180;-73
2022/12/27 10:56:52;;;;;;;11.67;2.60;;;6.30;99.90;;;;;;5061190;28;20698;-72
2022/12/27 10:59:26;;;;;;;7.63;3.10;;;6.40;99.90;;;;;;5053622;28;20237;-73
2022/12/27 11:02:01;;;;;;;7.20;2.80;;;6.40;99.90;;;;;;5060886;28;20210;-73
2022/12/27 11:04:29;;;;;;;5.97;2.30;;;6.50;99.90;;;;;;5060208;28;20572;-72
2022/12/27 11:07:03;;;;;;;7.97;2.20;;;6.40;99.90;;;;;;5057095;28;20221;-72
2022/12/27 11:09:33;;;;;;;7.37;3.13;;;6.40;99.90;;;;;;5059423;28;20608;-72
2022/12/27 11:12:18;;;;;;;8.83;3.17;;;6.40;99.90;;;;;;5058975;28;20172;-73
2022/12/27 11:15:16;;;;;;;5.83;2.30;;;6.30;99.90;;;;;;5061493;28;20278;-72
2022/12/27 11:17:49;;;;;;;9.43;2.53;;;6.30;99.90;;;;;;5059821;28;20910;-72
2022/12/27 11:20:21;;;;;;;9.50;2.80;;;6.40;99.90;;;;;;5056816;28;20200;-73
2022/12/27 11:23:03;;;;;;;4.77;2.60;;;6.40;99.90;;;;;;5059179;28;20686;-73
2022/12/27 11:25:30;;;;;;;9.77;3.30;;;6.30;99.90;;;;;;5063427;28;20254;-72
2022/12/27 11:28:03;;;;;;;9.03;2.77;;;6.30;99.90;;;;;;5064302;28;20221;-72
2022/12/27 11:30:36;;;;;;;5.23;2.37;;;6.30;99.90;;;;;;5064707;28;20276;-72
2022/12/27 11:33:06;;;;;;;8.10;2.60;;;6.40;99.90;;;;;;5066286;28;20175;-72
2022/12/27 11:35:43;;;;;;;7.47;2.70;;;6.30;99.90;;;;;;5066981;28;20279;-73
2022/12/27 11:38:26;;;;;;;8.57;2.50;;;6.30;99.90;;;;;;5062468;28;20736;-72
2022/12/27 11:41:05;;;;;;;5.23;2.70;;;6.30;99.90;;;;;;5059975;28;20202;-72
2022/12/27 11:43:38;;;;;;;6.93;2.70;;;6.40;99.90;;;;;;5063979;28;20284;-72
2022/12/27 11:46:17;;;;;;;8.30;2.97;;;6.40;99.90;;;;;;5061622;28;20218;-72
2022/12/27 11:48:56;;;;;;;10.63;3.07;;;6.40;99.90;;;;;;5061235;28;20260;-73
2022/12/27 11:51:36;;;;;;;6.37;3.00;;;6.40;99.90;;;;;;5069145;28;20257;-73
2022/12/27 11:54:13;;;;;;;8.03;3.07;;;6.40;99.90;;;;;;5063587;28;20601;-72
2022/12/27 11:57:22;;;;;;;10.53;3.37;;;6.40;99.90;;;;;;5062161;28;20210;-72
2022/12/27 12:00:11;;;;;;;8.33;3.47;;;6.50;99.90;;;;;;5062197;28;20649;-72
2022/12/27 12:03:14;;;;;;;9.73;2.80;;;6.50;99.90;;;;;;5060099;28;20573;-72
2022/12/27 12:06:07;;;;;;;7.40;2.33;;;6.50;99.90;;;;;;5063665;28;20252;-72
2022/12/27 12:08:58;;;;;;;8.13;2.60;;;6.50;99.90;;;;;;5065068;28;20211;-71
2022/12/27 12:11:42;;;;;;;8.43;2.60;;;6.50;99.90;;;;;;5062423;28;20665;-72
2022/12/27 12:14:16;;;;;;;8.13;2.70;;;6.60;99.90;;;;;;5059476;28;20231;-72
2022/12/27 12:16:59;;;;;;;6.77;2.57;;;6.60;99.90;;;;;;5061224;28;20703;-72
2022/12/27 12:19:28;;;;;;;7.40;2.87;;;6.60;99.90;;;;;;5060104;28;20200;-71
2022/12/27 12:22:16;;;;;;;8.20;2.77;;;6.70;99.90;;;;;;5062630;28;20223;-71
2022/12/27 12:25:23;;;;;;;7.37;2.93;;;6.70;99.90;;;;;;5064358;28;20238;-72
2022/12/27 12:28:01;;;;;;;6.80;2.77;;;6.70;99.90;;;;;;5061812;28;20221;-72
2022/12/27 12:30:51;;;;;;;5.60;2.50;;;6.70;99.90;;;;;;5063235;28;20228;-72
2022/12/27 12:33:44;;;;;;;6.03;2.60;;;6.60;99.90;;;;;;5063978;28;20171;-71
2022/12/27 12:36:25;;;;;;;7.30;2.87;;;6.60;99.90;;;;;;5060057;28;20198;-72
2022/12/27 12:39:28;;;;;;;8.90;2.73;;;6.60;99.90;;;;;;5060470;28;20179;-72
2022/12/27 12:41:59;;;;;;;7.73;2.70;;;6.50;99.90;;;;;;5065197;28;20561;-72
2022/12/27 12:44:39;;;;;;;9.37;2.80;;;6.50;99.90;;;;;;5064093;28;20393;-72
2022/12/27 12:47:33;;;;;;;5.07;2.53;;;6.50;99.90;;;;;;5061889;28;20211;-71
2022/12/27 12:50:20;;;;;;;8.37;2.60;;;6.60;99.90;;;;;;5061825;28;20702;-73
2022/12/27 12:53:10;;;;;;;7.40;3.17;;;6.60;99.90;;;;;;5061933;28;20207;-71
2022/12/27 12:56:07;;;;;;;6.03;2.90;;;6.60;99.90;;;;;;5064536;28;20559;-72
2022/12/27 12:58:53;;;;;;;9.70;3.37;;;6.60;99.90;;;;;;5061962;28;20203;-72
2022/12/27 13:01:51;;;;;;;6.90;2.93;;;6.50;99.90;;;;;;5059661;28;20262;-72
2022/12/27 13:05:00;;;;;;;8.53;2.87;;;6.50;99.90;;;;;;5053560;28;20309;-72
2022/12/27 13:07:40;;;;;;;8.17;2.60;;;6.60;99.90;;;;;;5082315;28;20207;-73
2022/12/27 13:10:42;;;;;;;7.63;3.00;;;6.70;99.90;;;;;;5058570;28;20308;-69
2022/12/27 13:13:43;;;;;;;6.50;2.80;;;6.70;99.90;;;;;;5059967;28;20215;-71
2022/12/27 13:16:50;;;;;;;6.47;2.63;;;6.80;99.90;;;;;;5062065;28;20224;-72
2022/12/27 13:19:31;;;;;;;5.87;2.50;;;6.90;99.90;;;;;;5028788;22;20240;-70
2022/12/27 13:22:21;;;;;;;6.57;2.90;;;6.80;99.90;;;;;;5020416;28;20219;-72
2022/12/27 13:24:52;;;;;;;9.20;2.50;;;6.90;99.90;;;;;;5023644;28;20295;-72
2022/12/27 13:27:42;;;;;;;9.40;3.13;;;6.90;99.90;;;;;;5001938;28;20263;-72
2022/12/27 13:30:16;;;;;;;8.37;3.20;;;6.90;99.90;;;;;;5025569;28;20215;-72
2022/12/27 13:33:05;;;;;;;5.47;2.37;;;6.90;99.90;;;;;;5023721;28;20628;-72
2022/12/27 13:35:41;;;;;;;5.93;2.57;;;6.90;99.90;;;;;;5028174;28;20243;-72
2022/12/27 13:38:25;;;;;;;7.93;2.40;;;6.80;99.90;;;;;;5026695;28;20235;-69
2022/12/27 13:40:57;;;;;;;5.73;2.70;;;6.80;99.90;;;;;;5023339;28;20211;-71
2022/12/27 13:43:35;;;;;;;7.43;2.63;;;6.70;99.90;;;;;;5026227;28;20621;-72
2022/12/27 13:46:04;;;;;;;10.83;3.23;;;6.80;99.90;;;;;;5022089;28;20209;-71
2022/12/27 13:48:59;;;;;;;7.77;2.17;;;6.80;99.90;;;;;;5012723;28;20721;-72
2022/12/27 13:51:50;;;;;;;8.17;2.97;;;6.80;99.90;;;;;;5025202;28;20169;-73
2022/12/27 13:54:40;;;;;;;7.53;2.37;;;6.80;99.90;;;;;;5009180;28;20647;-73
2022/12/27 13:57:45;;;;;;;7.97;2.10;;;6.80;99.90;;;;;;5027173;28;20246;-72
2022/12/27 14:00:18;;;;;;;9.63;2.40;;;6.70;99.90;;;;;;5001628;28;20213;-72
2022/12/27 14:03:03;;;;;;;6.80;2.27;;;6.70;99.90;;;;;;5029033;28;20207;-72
2022/12/27 14:05:53;;;;;;;11.90;3.20;;;6.70;99.90;;;;;;5025526;28;20204;-72
2022/12/27 14:08:37;;;;;;;5.97;2.50;;;6.70;99.90;;;;;;5025831;28;20771;-72
2022/12/27 14:11:27;;;;;;;7.40;2.53;;;6.70;99.90;;;;;;5026584;28;20303;-72
2022/12/27 14:13:55;;;;;;;7.93;2.50;;;6.70;99.90;;;;;;5019643;28;20270;-72
2022/12/27 14:17:05;;;;;;;9.27;3.13;;;6.70;99.90;;;;;;5011869;28;20212;-72
2022/12/27 14:19:56;;;;;;;9.77;2.40;;;6.60;99.90;;;;;;5022368;28;20220;-70
2022/12/27 14:22:57;;;;;;;6.80;2.70;;;6.60;99.90;;;;;;4996220;28;20574;-71
2022/12/27 14:26:15;;;;;;;9.53;2.33;;;6.50;99.90;;;;;;5023720;28;20709;-72
2022/12/27 14:28:53;;;;;;;7.63;2.90;;;6.50;99.90;;;;;;4950115;28;20222;-72
2022/12/27 14:31:48;;;;;;;6.83;2.83;;;6.50;99.90;;;;;;5004961;28;20283;-71
2022/12/27 14:34:44;;;;;;;7.03;2.77;;;6.50;99.90;;;;;;5012181;28;20208;-72
2022/12/27 14:37:38;;;;;;;10.00;2.50;;;6.40;99.90;;;;;;5008624;28;20284;-71
2022/12/27 14:40:30;;;;;;;10.70;2.90;;;6.40;99.90;;;;;;5020313;28;20221;-71
2022/12/27 14:43:26;;;;;;;7.33;2.70;;;6.40;99.90;;;;;;5024704;28;20583;-71
2022/12/27 14:46:10;;;;;;;7.50;2.30;;;6.40;99.90;;;;;;5007847;28;20298;-71
2022/12/27 14:49:00;;;;;;;7.40;2.90;;;6.50;99.90;;;;;;5024038;28;20216;-69
2022/12/27 14:51:54;;;;;;;11.10;2.53;;;6.40;99.90;;;;;;5020632;28;20634;-71
2022/12/27 14:54:38;;;;;;;6.67;2.50;;;6.30;99.90;;;;;;5021431;28;20172;-70
2022/12/27 14:57:37;;;;;;;10.00;2.57;;;6.30;99.90;;;;;;5026214;28;20227;-72
2022/12/27 15:00:18;;;;;;;8.33;2.30;;;6.20;99.90;;;;;;5024852;28;20240;-71
2022/12/27 15:03:25;;;;;;;11.37;2.97;;;6.20;99.90;;;;;;5029030;28;20279;-72
2022/12/27 15:06:02;;;;;;;9.30;2.63;;;6.10;99.90;;;;;;5026877;28;20208;-73
2022/12/27 15:08:58;;;;;;;7.27;3.07;;;6.10;99.90;;;;;;5012284;28;20718;-72
2022/12/27 15:11:52;;;;;;;8.13;2.80;;;6.10;99.90;;;;;;5026973;28;20204;-72